createdAt,value
2023-02-14T00:00:48.361Z,5.50
2023-02-14T00:03:15.076Z,5.48
2023-02-14T00:05:41.579Z,5.43
2023-02-14T00:08:08.091Z,5.43
2023-02-14T00:10:35.098Z,5.42
2023-02-14T00:13:01.588Z,5.38
2023-02-14T00:15:28.008Z,5.35
2023-02-14T00:17:59.475Z,5.32
2023-02-14T00:20:28.133Z,5.25
2023-02-14T00:22:54.763Z,5.18
2023-02-14T00:25:21.313Z,5.18
2023-02-14T00:27:48.002Z,5.21
2023-02-14T00:30:14.685Z,5.19
2023-02-14T00:32:42.361Z,5.16
2023-02-14T00:35:10.136Z,5.16
2023-02-14T00:37:38.169Z,5.14
2023-02-14T00:40:06.974Z,5.08
2023-02-14T00:42:33.493Z,5.02
2023-02-14T00:45:00.010Z,4.94
2023-02-14T00:47:26.450Z,4.99
2023-02-14T00:49:52.948Z,4.95
2023-02-14T00:52:19.383Z,4.91
2023-02-14T00:54:46.211Z,4.88
2023-02-14T00:57:12.660Z,4.81
2023-02-14T00:59:39.201Z,4.82
2023-02-14T01:02:05.788Z,4.80
2023-02-14T01:04:32.322Z,4.81
2023-02-14T01:06:58.770Z,4.81
2023-02-14T01:09:25.196Z,4.74
2023-02-14T01:11:51.671Z,4.75
2023-02-14T01:14:18.130Z,4.73
2023-02-14T01:16:44.640Z,4.69
2023-02-14T01:19:11.161Z,4.62
2023-02-14T01:21:37.744Z,4.55
2023-02-14T01:24:07.117Z,4.56
2023-02-14T01:26:35.237Z,4.55
2023-02-14T01:29:02.859Z,4.55
2023-02-14T01:31:32.161Z,4.51
2023-02-14T01:33:59.283Z,4.52
2023-02-14T01:36:28.739Z,4.50
2023-02-14T01:38:58.535Z,4.46
2023-02-14T01:41:27.487Z,4.42
2023-02-14T01:43:54.024Z,4.33
2023-02-14T01:46:20.584Z,4.28
2023-02-14T01:48:48.077Z,4.25
2023-02-14T01:51:16.980Z,4.26
2023-02-14T01:53:43.591Z,4.25
2023-02-14T01:56:14.671Z,4.23
2023-02-14T01:58:45.135Z,4.24
2023-02-14T02:01:20.679Z,4.24
2023-02-14T02:03:55.299Z,4.19
2023-02-14T02:06:34.356Z,4.21
2023-02-14T02:09:25.755Z,4.15
2023-02-14T02:11:52.208Z,4.19
2023-02-14T02:14:21.376Z,4.16
2023-02-14T02:17:12.595Z,4.13
2023-02-14T02:20:16.635Z,4.11
2023-02-14T02:22:58.182Z,4.14
2023-02-14T02:25:45.204Z,4.09
2023-02-14T02:28:39.115Z,3.99
2023-02-14T02:31:24.017Z,3.96
2023-02-14T02:33:50.456Z,3.96
2023-02-14T02:36:41.400Z,3.91
2023-02-14T02:39:43.301Z,3.86
2023-02-14T02:42:33.880Z,3.87
2023-02-14T02:45:12.254Z,3.80
2023-02-14T02:47:41.595Z,3.83
2023-02-14T02:50:32.895Z,3.78
2023-02-14T02:53:06.390Z,3.75
2023-02-14T02:56:00.575Z,3.74
2023-02-14T02:58:35.011Z,3.73
2023-02-14T03:01:07.216Z,3.71
2023-02-14T03:03:54.599Z,3.63
2023-02-14T03:06:21.203Z,3.64
2023-02-14T03:08:47.653Z,3.65
2023-02-14T03:11:14.310Z,3.63
2023-02-14T03:14:08.231Z,3.65
2023-02-14T03:16:42.351Z,3.55
2023-02-14T03:19:58.294Z,3.49
2023-02-14T03:22:41.455Z,3.50
2023-02-14T03:25:17.003Z,3.47
2023-02-14T03:28:09.759Z,3.46
2023-02-14T03:30:56.061Z,3.40
2023-02-14T03:33:41.271Z,3.41
2023-02-14T03:36:17.953Z,3.37
2023-02-14T03:39:04.581Z,3.40
2023-02-14T03:41:42.420Z,3.37
2023-02-14T03:44:11.398Z,3.36
2023-02-14T03:46:41.103Z,3.36
2023-02-14T03:49:12.724Z,3.34
2023-02-14T03:51:41.197Z,3.30
2023-02-14T03:54:10.655Z,3.30
2023-02-14T03:57:12.592Z,3.30
2023-02-14T03:59:39.799Z,3.28
2023-02-14T04:02:11.892Z,3.29
2023-02-14T04:05:01.684Z,3.29
2023-02-14T04:07:28.201Z,3.26
2023-02-14T04:09:54.755Z,3.28
2023-02-14T04:12:29.408Z,3.29
2023-02-14T04:15:03.876Z,3.25
2023-02-14T04:17:48.692Z,3.26
2023-02-14T04:20:15.117Z,3.27
2023-02-14T04:22:41.635Z,3.27
2023-02-14T04:25:10.848Z,3.20
2023-02-14T04:27:37.407Z,3.20
2023-02-14T04:30:04.318Z,3.18
2023-02-14T04:32:33.666Z,3.16
2023-02-14T04:35:00.102Z,3.06
2023-02-14T04:37:26.622Z,3.10
2023-02-14T04:39:53.069Z,3.11
2023-02-14T04:42:19.507Z,3.09
2023-02-14T04:44:45.971Z,3.10
2023-02-14T04:47:12.402Z,3.09
2023-02-14T04:49:38.879Z,3.08
2023-02-14T04:52:06.103Z,3.02
2023-02-14T04:54:33.079Z,2.99
2023-02-14T04:57:00.861Z,3.02
2023-02-14T04:59:27.354Z,3.01
2023-02-14T05:01:53.843Z,2.99
2023-02-14T05:04:20.606Z,2.93
2023-02-14T05:06:47.327Z,2.95
2023-02-14T05:09:16.850Z,2.93
2023-02-14T05:11:43.298Z,2.91
2023-02-14T05:14:09.819Z,2.88
2023-02-14T05:16:36.728Z,2.93
2023-02-14T05:19:03.230Z,2.92
2023-02-14T05:21:33.020Z,2.84
2023-02-14T05:24:00.885Z,2.84
2023-02-14T05:26:28.180Z,2.85
2023-02-14T05:28:54.701Z,2.82
2023-02-14T05:31:21.249Z,2.82
2023-02-14T05:33:47.809Z,2.76
2023-02-14T05:36:14.570Z,2.79
2023-02-14T05:38:41.034Z,2.72
2023-02-14T05:41:10.287Z,2.68
2023-02-14T05:43:42.598Z,2.63
2023-02-14T05:46:16.917Z,2.57
2023-02-14T05:48:44.332Z,2.57
2023-02-14T05:51:11.358Z,2.56
2023-02-14T05:53:38.786Z,2.51
2023-02-14T05:56:06.082Z,2.48
2023-02-14T05:58:38.004Z,2.53
2023-02-14T06:01:04.566Z,2.56
2023-02-14T06:03:30.983Z,2.55
2023-02-14T06:05:57.495Z,2.53
2023-02-14T06:08:24.005Z,2.49
2023-02-14T06:10:50.537Z,2.44
2023-02-14T06:13:17.107Z,2.40
2023-02-14T06:15:49.180Z,2.34
2023-02-14T06:18:15.632Z,2.24
2023-02-14T06:20:42.069Z,2.27
2023-02-14T06:23:08.606Z,2.29
2023-02-14T06:25:35.163Z,2.32
2023-02-14T06:28:01.646Z,2.36
2023-02-14T06:30:28.342Z,2.33
2023-02-14T06:32:54.944Z,2.37
2023-02-14T06:35:21.580Z,2.36
2023-02-14T06:37:56.872Z,2.36
2023-02-14T06:40:24.075Z,2.43
2023-02-14T06:42:50.518Z,2.44
2023-02-14T06:45:17.182Z,2.44
2023-02-14T06:47:45.014Z,2.42
2023-02-14T06:50:11.839Z,2.42
2023-02-14T06:52:38.932Z,2.39
2023-02-14T06:55:05.748Z,2.40
2023-02-14T06:57:32.226Z,2.41
2023-02-14T07:00:11.319Z,2.41
2023-02-14T07:02:37.969Z,2.41
2023-02-14T07:05:04.671Z,2.39
2023-02-14T07:07:31.123Z,2.41
2023-02-14T07:09:57.540Z,2.34
2023-02-14T07:12:24.041Z,2.35
2023-02-14T07:14:50.503Z,2.35
2023-02-14T07:17:16.998Z,2.36
2023-02-14T07:19:43.442Z,2.36
2023-02-14T07:22:10.012Z,2.39
2023-02-14T07:24:36.451Z,2.36
2023-02-14T07:27:02.999Z,2.42
2023-02-14T07:29:29.434Z,2.42
2023-02-14T07:31:56.075Z,2.40
2023-02-14T07:34:22.735Z,2.44
2023-02-14T07:36:49.212Z,2.52
2023-02-14T07:39:15.707Z,2.51
2023-02-14T07:41:42.180Z,2.59
2023-02-14T07:44:08.691Z,2.63
2023-02-14T07:46:37.877Z,2.66
2023-02-14T07:49:04.420Z,2.71
2023-02-14T07:51:30.942Z,2.75
2023-02-14T07:53:57.397Z,2.81
2023-02-14T07:56:23.923Z,2.85
2023-02-14T07:58:50.360Z,2.94
2023-02-14T08:01:17.327Z,3.01
2023-02-14T08:03:45.907Z,3.10
2023-02-14T08:06:12.474Z,3.16
2023-02-14T08:08:38.985Z,3.24
2023-02-14T08:11:05.616Z,3.30
2023-02-14T08:13:32.130Z,3.37
2023-02-14T08:16:12.599Z,3.46
2023-02-14T08:18:41.630Z,3.56
2023-02-14T08:21:10.183Z,3.64
2023-02-14T08:23:37.531Z,3.73
2023-02-14T08:26:04.377Z,3.83
2023-02-14T08:28:32.955Z,3.91
2023-02-14T08:30:59.759Z,4.00
2023-02-14T08:33:26.477Z,4.10
2023-02-14T08:35:53.059Z,4.22
2023-02-14T08:38:19.961Z,4.27
2023-02-14T08:40:47.142Z,4.41
2023-02-14T08:43:13.997Z,4.53
2023-02-14T08:45:41.153Z,4.63
2023-02-14T08:48:11.350Z,4.79
2023-02-14T08:50:38.427Z,4.95
2023-02-14T08:53:09.518Z,5.10
2023-02-14T08:55:36.368Z,5.24
2023-02-14T08:58:03.803Z,5.39
2023-02-14T09:00:31.680Z,5.59
2023-02-14T09:02:58.578Z,5.77
2023-02-14T09:05:26.471Z,5.97
2023-02-14T09:07:55.901Z,6.15
2023-02-14T09:10:23.136Z,6.33
2023-02-14T09:12:49.694Z,6.50
2023-02-14T09:15:16.272Z,6.69
2023-02-14T09:17:42.833Z,6.85
2023-02-14T09:20:11.538Z,7.06
2023-02-14T09:22:38.703Z,7.24
2023-02-14T09:25:06.027Z,7.45
2023-02-14T09:27:32.574Z,7.66
2023-02-14T09:29:59.216Z,7.85
2023-02-14T09:32:27.083Z,8.00
2023-02-14T09:34:53.648Z,8.18
2023-02-14T09:37:20.284Z,8.38
2023-02-14T09:39:46.760Z,8.56
2023-02-14T09:42:31.360Z,8.76
2023-02-14T09:45:01.764Z,8.95
2023-02-14T09:47:35.492Z,9.15
2023-02-14T09:50:06.491Z,9.33
2023-02-14T09:52:33.328Z,9.51
2023-02-14T09:55:02.762Z,9.67
2023-02-14T09:57:48.061Z,9.84
2023-02-14T10:00:29.291Z,10.00
2023-02-14T10:03:25.002Z,10.17
2023-02-14T10:06:00.275Z,10.36
2023-02-14T10:08:26.643Z,10.45
2023-02-14T10:11:03.897Z,10.54
2023-02-14T10:13:44.766Z,10.69
2023-02-14T10:16:37.364Z,10.79
2023-02-14T10:19:12.108Z,10.94
2023-02-14T10:21:43.022Z,11.22
2023-02-14T10:24:33.852Z,11.37
2023-02-14T10:27:13.404Z,11.48
2023-02-14T10:29:41.700Z,11.69
2023-02-14T10:32:14.528Z,11.67
2023-02-14T10:34:48.025Z,11.78
2023-02-14T10:37:41.389Z,12.05
2023-02-14T10:40:17.577Z,12.29
2023-02-14T10:43:10.936Z,12.53
2023-02-14T10:46:04.761Z,12.74
2023-02-14T10:48:44.540Z,12.91
2023-02-14T10:51:24.694Z,12.96
2023-02-14T10:54:22.481Z,13.33
2023-02-14T10:57:09.164Z,13.56
2023-02-14T10:59:57.642Z,13.74
2023-02-14T11:02:30.036Z,13.98
2023-02-14T11:04:57.501Z,14.19
2023-02-14T11:07:24.029Z,14.50
2023-02-14T11:09:50.505Z,14.78
2023-02-14T11:12:39.012Z,14.88
2023-02-14T11:15:14.541Z,15.05
2023-02-14T11:17:42.216Z,15.38
2023-02-14T11:20:23.829Z,15.60
2023-02-14T11:22:52.830Z,15.61
2023-02-14T11:25:22.806Z,15.87
2023-02-14T11:28:00.319Z,16.20
2023-02-14T11:30:29.419Z,16.28
2023-02-14T11:32:56.466Z,16.48
2023-02-14T11:35:33.814Z,16.16
2023-02-14T11:38:22.989Z,16.38
2023-02-14T11:40:55.977Z,16.81
2023-02-14T11:43:40.873Z,17.12
2023-02-14T11:46:13.261Z,17.35
2023-02-14T11:48:40.114Z,17.44
2023-02-14T11:51:13.991Z,17.76
2023-02-14T11:53:48.831Z,17.79
2023-02-14T11:56:17.495Z,18.07
2023-02-14T11:59:03.049Z,18.66
2023-02-14T12:01:32.842Z,18.14
2023-02-14T12:04:03.517Z,18.73
2023-02-14T12:06:32.575Z,18.37
2023-02-14T12:09:24.029Z,18.53
2023-02-14T12:11:59.252Z,18.69
2023-02-14T12:14:29.698Z,18.96
2023-02-14T12:17:02.791Z,19.49
2023-02-14T12:19:46.576Z,19.49
2023-02-14T12:22:20.699Z,20.73
2023-02-14T12:25:03.323Z,21.71
2023-02-14T12:27:43.799Z,22.44
2023-02-14T12:30:20.662Z,21.57
2023-02-14T12:32:52.627Z,21.53
2023-02-14T12:35:40.927Z,22.56
2023-02-14T12:38:16.413Z,23.16
2023-02-14T12:41:02.658Z,23.00
2023-02-14T12:43:50.963Z,23.67
2023-02-14T12:46:35.091Z,24.57
2023-02-14T12:49:22.427Z,23.91
2023-02-14T12:52:18.417Z,24.60
2023-02-14T12:55:24.533Z,25.46
2023-02-14T12:57:57.742Z,26.19
2023-02-14T13:01:01.870Z,25.83
2023-02-14T13:03:31.491Z,26.55
2023-02-14T13:06:15.335Z,27.18
2023-02-14T13:09:19.419Z,27.80
2023-02-14T13:12:23.030Z,28.30
2023-02-14T13:15:11.611Z,26.88
2023-02-14T13:17:52.973Z,27.59
2023-02-14T13:20:41.137Z,28.22
2023-02-14T13:23:30.560Z,27.37
2023-02-14T13:26:06.503Z,28.08
2023-02-14T13:28:36.204Z,28.39
2023-02-14T13:31:03.072Z,28.98
2023-02-14T13:33:40.968Z,28.78
2023-02-14T13:36:10.717Z,29.07
2023-02-14T13:38:44.334Z,29.54
2023-02-14T13:41:12.646Z,29.39
2023-02-14T13:43:56.172Z,29.69
2023-02-14T13:46:48.159Z,30.42
2023-02-14T13:49:34.548Z,30.53
2023-02-14T13:52:03.977Z,31.14
2023-02-14T13:54:50.713Z,31.47
2023-02-14T13:57:25.509Z,31.64
2023-02-14T14:00:10.897Z,31.45
2023-02-14T14:02:50.285Z,31.59
2023-02-14T14:05:40.449Z,31.22
2023-02-14T14:08:26.611Z,31.46
2023-02-14T14:10:57.093Z,31.59
2023-02-14T14:13:42.449Z,31.64
2023-02-14T14:16:27.258Z,31.93
2023-02-14T14:19:09.090Z,32.02
2023-02-14T14:21:40.914Z,31.99
2023-02-14T14:24:22.822Z,32.07
2023-02-14T14:26:59.871Z,32.00
2023-02-14T14:29:38.567Z,32.13
2023-02-14T14:32:18.137Z,31.77
2023-02-14T14:35:13.598Z,31.92
2023-02-14T14:37:47.411Z,31.87
2023-02-14T14:40:24.929Z,31.51
2023-02-14T14:42:52.355Z,31.30
2023-02-14T14:45:23.004Z,31.41
2023-02-14T14:47:54.193Z,31.33
2023-02-14T14:50:30.983Z,31.31
2023-02-14T14:53:02.681Z,31.29
2023-02-14T14:55:31.763Z,30.75
2023-02-14T14:58:03.781Z,29.18
2023-02-14T15:00:35.602Z,26.90
2023-02-14T15:03:11.946Z,25.32
2023-02-14T15:05:41.572Z,24.64
2023-02-14T15:08:32.890Z,23.80
2023-02-14T15:11:37.492Z,22.83
2023-02-14T15:14:10.632Z,22.62
2023-02-14T15:16:57.711Z,22.54
2023-02-14T15:19:38.656Z,22.44
2023-02-14T15:22:07.841Z,22.36
2023-02-14T15:24:37.845Z,22.20
2023-02-14T15:27:05.017Z,22.11
2023-02-14T15:29:33.034Z,21.99
2023-02-14T15:32:03.107Z,21.92
2023-02-14T15:34:32.756Z,21.66
2023-02-14T15:37:06.053Z,21.53
2023-02-14T15:39:40.369Z,21.38
2023-02-14T15:42:27.636Z,21.13
2023-02-14T15:45:17.018Z,20.83
2023-02-14T15:47:47.388Z,20.67
2023-02-14T15:50:21.234Z,20.40
2023-02-14T15:52:48.470Z,20.10
2023-02-14T15:55:22.460Z,19.74
2023-02-14T15:57:55.981Z,19.40
2023-02-14T16:00:24.259Z,19.04
2023-02-14T16:03:03.054Z,18.70
2023-02-14T16:05:29.537Z,18.33
2023-02-14T16:07:57.266Z,17.97
2023-02-14T16:10:35.925Z,17.68
2023-02-14T16:13:06.498Z,17.49
2023-02-14T16:15:35.272Z,17.25
2023-02-14T16:18:08.206Z,17.15
2023-02-14T16:20:35.969Z,16.91
2023-02-14T16:23:27.325Z,16.61
2023-02-14T16:25:54.769Z,16.52
2023-02-14T16:28:21.400Z,16.26
2023-02-14T16:30:54.854Z,16.03
2023-02-14T16:33:25.324Z,15.90
2023-02-14T16:35:53.119Z,15.79
2023-02-14T16:38:21.375Z,15.55
2023-02-14T16:40:52.578Z,15.41
2023-02-14T16:43:20.549Z,15.23
2023-02-14T16:45:47.762Z,15.03
2023-02-14T16:48:17.111Z,14.87
2023-02-14T16:50:45.050Z,14.75
2023-02-14T16:53:24.979Z,14.54
2023-02-14T16:55:53.945Z,14.45
2023-02-14T16:58:23.039Z,14.27
2023-02-14T17:00:49.530Z,14.19
2023-02-14T17:03:16.253Z,14.05
2023-02-14T17:05:42.981Z,13.96
2023-02-14T17:08:13.129Z,13.81
2023-02-14T17:10:41.799Z,13.66
2023-02-14T17:13:10.383Z,13.53
2023-02-14T17:15:39.023Z,13.37
2023-02-14T17:18:11.248Z,13.18
2023-02-14T17:20:38.549Z,13.11
2023-02-14T17:23:05.005Z,12.94
2023-02-14T17:25:31.646Z,12.94
2023-02-14T17:27:58.170Z,12.73
2023-02-14T17:30:24.691Z,12.66
2023-02-14T17:32:51.204Z,12.60
2023-02-14T17:35:18.411Z,12.53
2023-02-14T17:37:44.991Z,12.43
2023-02-14T17:40:12.447Z,12.29
2023-02-14T17:42:38.996Z,12.17
2023-02-14T17:45:06.648Z,12.04
2023-02-14T17:47:33.962Z,11.94
2023-02-14T17:50:01.626Z,11.80
2023-02-14T17:52:29.825Z,11.71
2023-02-14T17:54:56.363Z,11.56
2023-02-14T17:57:22.894Z,11.50
2023-02-14T17:59:49.508Z,11.39
2023-02-14T18:02:15.980Z,11.28
2023-02-14T18:04:42.470Z,11.16
2023-02-14T18:07:09.025Z,11.08
2023-02-14T18:09:35.546Z,11.08
2023-02-14T18:12:02.539Z,11.04
2023-02-14T18:14:29.098Z,10.98
2023-02-14T18:16:55.612Z,10.83
2023-02-14T18:19:22.206Z,10.84
2023-02-14T18:21:48.770Z,10.79
2023-02-14T18:24:15.709Z,10.68
2023-02-14T18:26:42.997Z,10.64
2023-02-14T18:29:10.811Z,10.53
2023-02-14T18:31:41.311Z,10.50
2023-02-14T18:34:08.697Z,10.47
2023-02-14T18:36:37.028Z,10.37
2023-02-14T18:39:04.099Z,10.35
2023-02-14T18:41:30.644Z,10.27
2023-02-14T18:43:57.170Z,10.17
2023-02-14T18:46:33.176Z,10.00
2023-02-14T18:48:59.750Z,9.98
2023-02-14T18:51:29.495Z,9.91
2023-02-14T18:53:58.319Z,9.91
2023-02-14T18:56:30.661Z,9.88
2023-02-14T18:59:05.347Z,9.77
2023-02-14T19:01:36.794Z,9.72
2023-02-14T19:04:06.001Z,9.62
2023-02-14T19:06:34.038Z,9.53
2023-02-14T19:09:01.718Z,9.47
2023-02-14T19:11:33.842Z,9.45
2023-02-14T19:14:01.656Z,9.40
2023-02-14T19:16:33.496Z,9.32
2023-02-14T19:19:02.393Z,9.27
2023-02-14T19:21:32.018Z,9.18
2023-02-14T19:23:58.697Z,9.05
2023-02-14T19:26:29.277Z,9.05
2023-02-14T19:28:58.086Z,8.96
2023-02-14T19:31:25.560Z,8.87
2023-02-14T19:33:52.577Z,8.82
2023-02-14T19:36:21.191Z,8.75
2023-02-14T19:38:51.494Z,8.57
2023-02-14T19:41:23.574Z,8.53
2023-02-14T19:43:53.526Z,8.40
2023-02-14T19:46:21.418Z,8.48
2023-02-14T19:48:48.721Z,8.34
2023-02-14T19:51:25.709Z,8.22
2023-02-14T19:53:52.869Z,8.20
2023-02-14T19:56:27.947Z,8.11
2023-02-14T19:58:56.050Z,8.09
2023-02-14T20:01:33.068Z,8.14
2023-02-14T20:04:00.082Z,8.15
2023-02-14T20:06:29.221Z,8.12
2023-02-14T20:08:55.851Z,8.01
2023-02-14T20:11:25.446Z,8.07
2023-02-14T20:13:54.077Z,8.00
2023-02-14T20:16:24.664Z,7.92
2023-02-14T20:18:51.571Z,7.87
2023-02-14T20:21:27.964Z,7.82
2023-02-14T20:24:03.016Z,7.77
2023-02-14T20:26:31.796Z,7.61
2023-02-14T20:28:59.364Z,7.60
2023-02-14T20:31:26.288Z,7.46
2023-02-14T20:33:52.918Z,7.41
2023-02-14T20:36:20.248Z,7.36
2023-02-14T20:38:46.743Z,7.34
2023-02-14T20:41:16.392Z,7.32
2023-02-14T20:43:42.881Z,7.27
2023-02-14T20:46:09.394Z,7.21
2023-02-14T20:48:36.016Z,7.19
2023-02-14T20:51:17.909Z,7.21
2023-02-14T20:53:45.736Z,7.19
2023-02-14T20:56:13.585Z,7.17
2023-02-14T20:58:40.849Z,7.15
2023-02-14T21:01:10.345Z,7.10
2023-02-14T21:03:37.540Z,6.94
2023-02-14T21:06:05.406Z,6.94
2023-02-14T21:08:32.300Z,6.89
2023-02-14T21:10:59.105Z,6.82
2023-02-14T21:13:25.898Z,6.83
2023-02-14T21:15:52.450Z,6.81
2023-02-14T21:18:18.950Z,6.77
2023-02-14T21:20:45.611Z,6.72
2023-02-14T21:23:12.640Z,6.67
2023-02-14T21:25:39.598Z,6.62
2023-02-14T21:28:06.304Z,6.64
2023-02-14T21:30:32.846Z,6.57
2023-02-14T21:33:00.199Z,6.57
2023-02-14T21:35:26.830Z,6.51
2023-02-14T21:37:53.364Z,6.49
2023-02-14T21:40:19.961Z,6.47
2023-02-14T21:42:46.501Z,6.42
2023-02-14T21:45:32.113Z,6.34
2023-02-14T21:48:16.928Z,6.29
2023-02-14T21:50:43.493Z,6.27
2023-02-14T21:53:10.085Z,6.21
2023-02-14T21:55:38.415Z,6.17
2023-02-14T21:58:04.931Z,6.17
2023-02-14T22:00:31.354Z,6.06
2023-02-14T22:02:57.960Z,6.05
2023-02-14T22:05:25.236Z,6.00
2023-02-14T22:07:51.772Z,5.91
2023-02-14T22:10:18.328Z,5.92
2023-02-14T22:12:44.778Z,5.82
2023-02-14T22:15:11.366Z,5.85
2023-02-14T22:17:38.389Z,5.82
2023-02-14T22:20:06.493Z,5.74
2023-02-14T22:22:34.998Z,5.74
2023-02-14T22:25:01.548Z,5.69
2023-02-14T22:27:28.116Z,5.59
2023-02-14T22:29:54.792Z,5.66
2023-02-14T22:32:22.631Z,5.63
2023-02-14T22:34:49.182Z,5.59
2023-02-14T22:37:15.648Z,5.54
2023-02-14T22:39:42.119Z,5.51
2023-02-14T22:42:09.972Z,5.47
2023-02-14T22:44:36.456Z,5.41
2023-02-14T22:47:02.918Z,5.36
2023-02-14T22:49:29.485Z,5.38
2023-02-14T22:51:56.026Z,5.34
2023-02-14T22:54:22.545Z,5.29
2023-02-14T22:56:50.968Z,5.28
2023-02-14T22:59:18.636Z,5.23
2023-02-14T23:01:46.130Z,5.19
2023-02-14T23:04:12.800Z,5.16
2023-02-14T23:06:39.551Z,5.15
2023-02-14T23:09:08.868Z,5.08
2023-02-14T23:11:37.275Z,5.08
2023-02-14T23:14:27.592Z,5.07
2023-02-14T23:17:12.621Z,5.02
2023-02-14T23:19:57.615Z,4.97
2023-02-14T23:22:29.665Z,4.98
2023-02-14T23:24:58.513Z,4.90
2023-02-14T23:27:30.617Z,4.86
2023-02-14T23:29:57.354Z,4.79
2023-02-14T23:32:23.876Z,4.80
2023-02-14T23:34:50.338Z,4.69
2023-02-14T23:37:16.913Z,4.70
2023-02-14T23:39:43.436Z,4.67
2023-02-14T23:42:13.622Z,4.62
2023-02-14T23:44:40.683Z,4.59
2023-02-14T23:47:08.585Z,4.59
2023-02-14T23:49:37.058Z,4.55
2023-02-14T23:52:06.378Z,4.55
2023-02-14T23:54:39.086Z,4.55
2023-02-14T23:57:07.469Z,4.49
2023-02-14T23:59:34.070Z,4.49
